sensor_id;sensor_type;location;lat;lon;timestamp;P1;durP1;ratioP1;P2;durP2;ratioP2
73476;SDS011;61713;51.034;13.756;2022-07-29T00:00:47;7.85;;;3.45;;
73476;SDS011;61713;51.034;13.756;2022-07-29T00:03:12;6.00;;;3.10;;
73476;SDS011;61713;51.034;13.756;2022-07-29T00:05:39;6.43;;;3.05;;
73476;SDS011;61713;51.034;13.756;2022-07-29T00:08:05;5.22;;;3.25;;
73476;SDS011;61713;51.034;13.756;2022-07-29T00:10:32;4.80;;;2.97;;
73476;SDS011;61713;51.034;13.756;2022-07-29T00:12:57;6.07;;;3.27;;
73476;SDS011;61713;51.034;13.756;2022-07-29T00:15:23;6.80;;;2.90;;
73476;SDS011;61713;51.034;13.756;2022-07-29T00:17:48;6.90;;;3.10;;
73476;SDS011;61713;51.034;13.756;2022-07-29T00:20:14;5.78;;;3.08;;
73476;SDS011;61713;51.034;13.756;2022-07-29T00:22:39;4.50;;;2.85;;
73476;SDS011;61713;51.034;13.756;2022-07-29T00:25:05;5.47;;;2.80;;
73476;SDS011;61713;51.034;13.756;2022-07-29T00:27:32;5.93;;;2.93;;
73476;SDS011;61713;51.034;13.756;2022-07-29T00:29:58;8.25;;;3.03;;
73476;SDS011;61713;51.034;13.756;2022-07-29T00:32:23;5.30;;;2.90;;
73476;SDS011;61713;51.034;13.756;2022-07-29T00:34:49;6.73;;;2.87;;
73476;SDS011;61713;51.034;13.756;2022-07-29T00:37:33;7.00;;;3.00;;
73476;SDS011;61713;51.034;13.756;2022-07-29T00:39:59;6.03;;;3.00;;
73476;SDS011;61713;51.034;13.756;2022-07-29T00:42:24;7.53;;;2.80;;
73476;SDS011;61713;51.034;13.756;2022-07-29T00:44:50;7.27;;;2.90;;
73476;SDS011;61713;51.034;13.756;2022-07-29T00:47:15;4.87;;;2.70;;
73476;SDS011;61713;51.034;13.756;2022-07-29T00:49:41;5.53;;;2.90;;
73476;SDS011;61713;51.034;13.756;2022-07-29T00:52:07;4.82;;;2.60;;
73476;SDS011;61713;51.034;13.756;2022-07-29T00:54:34;6.70;;;3.23;;
73476;SDS011;61713;51.034;13.756;2022-07-29T00:57:00;4.88;;;3.10;;
73476;SDS011;61713;51.034;13.756;2022-07-29T00:59:26;8.00;;;2.95;;
73476;SDS011;61713;51.034;13.756;2022-07-29T01:01:53;6.55;;;2.70;;
73476;SDS011;61713;51.034;13.756;2022-07-29T01:04:19;7.35;;;3.08;;
73476;SDS011;61713;51.034;13.756;2022-07-29T01:06:46;5.90;;;2.70;;
73476;SDS011;61713;51.034;13.756;2022-07-29T01:09:13;5.47;;;2.80;;
73476;SDS011;61713;51.034;13.756;2022-07-29T01:11:40;4.68;;;3.00;;
73476;SDS011;61713;51.034;13.756;2022-07-29T01:14:07;7.03;;;3.05;;
73476;SDS011;61713;51.034;13.756;2022-07-29T01:16:36;6.50;;;3.10;;
73476;SDS011;61713;51.034;13.756;2022-07-29T01:19:22;5.30;;;2.88;;
73476;SDS011;61713;51.034;13.756;2022-07-29T01:22:23;5.15;;;2.72;;
73476;SDS011;61713;51.034;13.756;2022-07-29T01:30:49;5.57;;;2.90;;
73476;SDS011;61713;51.034;13.756;2022-07-29T01:33:17;5.75;;;3.17;;
73476;SDS011;61713;51.034;13.756;2022-07-29T01:36:06;5.65;;;2.80;;
73476;SDS011;61713;51.034;13.756;2022-07-29T01:38:42;4.78;;;3.00;;
73476;SDS011;61713;51.034;13.756;2022-07-29T01:41:16;4.53;;;2.77;;
73476;SDS011;61713;51.034;13.756;2022-07-29T01:43:48;5.82;;;3.00;;
73476;SDS011;61713;51.034;13.756;2022-07-29T01:46:20;3.80;;;2.80;;
73476;SDS011;61713;51.034;13.756;2022-07-29T01:48:53;4.93;;;2.77;;
73476;SDS011;61713;51.034;13.756;2022-07-29T01:51:29;4.95;;;2.85;;
73476;SDS011;61713;51.034;13.756;2022-07-29T01:56:59;4.60;;;2.88;;
73476;SDS011;61713;51.034;13.756;2022-07-29T01:59:26;3.60;;;2.53;;
73476;SDS011;61713;51.034;13.756;2022-07-29T02:01:54;4.55;;;2.97;;
73476;SDS011;61713;51.034;13.756;2022-07-29T02:04:22;5.38;;;2.90;;
73476;SDS011;61713;51.034;13.756;2022-07-29T02:06:49;8.05;;;3.28;;
73476;SDS011;61713;51.034;13.756;2022-07-29T02:09:16;4.82;;;2.67;;
73476;SDS011;61713;51.034;13.756;2022-07-29T02:11:46;3.85;;;2.88;;
73476;SDS011;61713;51.034;13.756;2022-07-29T02:14:15;5.67;;;2.97;;
73476;SDS011;61713;51.034;13.756;2022-07-29T02:16:47;6.15;;;3.15;;
73476;SDS011;61713;51.034;13.756;2022-07-29T02:19:16;6.32;;;3.13;;
73476;SDS011;61713;51.034;13.756;2022-07-29T02:21:44;6.07;;;2.95;;
73476;SDS011;61713;51.034;13.756;2022-07-29T02:24:11;8.75;;;3.28;;
73476;SDS011;61713;51.034;13.756;2022-07-29T02:26:37;6.95;;;3.17;;
73476;SDS011;61713;51.034;13.756;2022-07-29T02:29:06;6.55;;;3.45;;
73476;SDS011;61713;51.034;13.756;2022-07-29T02:31:34;7.97;;;3.83;;
73476;SDS011;61713;51.034;13.756;2022-07-29T02:34:05;7.30;;;3.45;;
73476;SDS011;61713;51.034;13.756;2022-07-29T02:36:33;5.93;;;3.53;;
73476;SDS011;61713;51.034;13.756;2022-07-29T02:38:59;5.28;;;3.55;;
73476;SDS011;61713;51.034;13.756;2022-07-29T02:41:27;5.50;;;3.30;;
73476;SDS011;61713;51.034;13.756;2022-07-29T02:44:00;6.35;;;4.10;;
73476;SDS011;61713;51.034;13.756;2022-07-29T02:46:33;6.90;;;3.67;;
73476;SDS011;61713;51.034;13.756;2022-07-29T02:49:07;9.80;;;4.18;;
73476;SDS011;61713;51.034;13.756;2022-07-29T02:51:40;7.07;;;3.90;;
73476;SDS011;61713;51.034;13.756;2022-07-29T02:54:09;9.48;;;4.85;;
73476;SDS011;61713;51.034;13.756;2022-07-29T02:56:36;7.88;;;4.78;;
73476;SDS011;61713;51.034;13.756;2022-07-29T02:59:06;6.87;;;4.70;;
73476;SDS011;61713;51.034;13.756;2022-07-29T03:01:36;8.00;;;5.22;;
73476;SDS011;61713;51.034;13.756;2022-07-29T03:04:05;7.68;;;5.00;;
73476;SDS011;61713;51.034;13.756;2022-07-29T03:06:32;12.10;;;6.60;;
73476;SDS011;61713;51.034;13.756;2022-07-29T03:08:59;10.20;;;6.57;;
73476;SDS011;61713;51.034;13.756;2022-07-29T03:11:25;9.45;;;6.85;;
73476;SDS011;61713;51.034;13.756;2022-07-29T03:13:51;11.63;;;7.07;;
73476;SDS011;61713;51.034;13.756;2022-07-29T03:16:18;11.63;;;7.15;;
73476;SDS011;61713;51.034;13.756;2022-07-29T03:18:44;12.55;;;6.78;;
73476;SDS011;61713;51.034;13.756;2022-07-29T03:21:11;9.32;;;6.95;;
73476;SDS011;61713;51.034;13.756;2022-07-29T03:23:37;11.43;;;7.55;;
73476;SDS011;61713;51.034;13.756;2022-07-29T03:26:08;9.55;;;7.43;;
73476;SDS011;61713;51.034;13.756;2022-07-29T03:28:33;10.70;;;8.07;;
73476;SDS011;61713;51.034;13.756;2022-07-29T03:30:59;13.30;;;9.10;;
73476;SDS011;61713;51.034;13.756;2022-07-29T03:33:24;13.50;;;8.75;;
73476;SDS011;61713;51.034;13.756;2022-07-29T03:35:50;13.85;;;9.23;;
73476;SDS011;61713;51.034;13.756;2022-07-29T03:38:15;13.95;;;9.85;;
73476;SDS011;61713;51.034;13.756;2022-07-29T03:40:45;13.43;;;8.87;;
73476;SDS011;61713;51.034;13.756;2022-07-29T03:43:14;13.02;;;9.77;;
73476;SDS011;61713;51.034;13.756;2022-07-29T03:45:42;14.20;;;9.10;;
73476;SDS011;61713;51.034;13.756;2022-07-29T03:48:12;14.10;;;9.48;;
73476;SDS011;61713;51.034;13.756;2022-07-29T03:50:40;13.00;;;10.07;;
73476;SDS011;61713;51.034;13.756;2022-07-29T03:53:05;13.23;;;10.13;;
73476;SDS011;61713;51.034;13.756;2022-07-29T03:55:41;13.43;;;8.73;;
73476;SDS011;61713;51.034;13.756;2022-07-29T03:58:10;14.18;;;10.02;;
73476;SDS011;61713;51.034;13.756;2022-07-29T04:00:36;15.20;;;10.10;;
73476;SDS011;61713;51.034;13.756;2022-07-29T04:03:03;15.52;;;10.48;;
73476;SDS011;61713;51.034;13.756;2022-07-29T04:05:29;13.75;;;11.30;;
73476;SDS011;61713;51.034;13.756;2022-07-29T04:07:55;18.37;;;11.63;;
73476;SDS011;61713;51.034;13.756;2022-07-29T04:10:21;15.98;;;12.05;;
73476;SDS011;61713;51.034;13.756;2022-07-29T04:12:47;17.25;;;12.40;;
73476;SDS011;61713;51.034;13.756;2022-07-29T04:15:13;16.50;;;12.53;;
73476;SDS011;61713;51.034;13.756;2022-07-29T04:17:39;17.95;;;13.15;;
73476;SDS011;61713;51.034;13.756;2022-07-29T04:20:05;18.87;;;13.90;;
73476;SDS011;61713;51.034;13.756;2022-07-29T04:22:31;20.92;;;14.52;;
73476;SDS011;61713;51.034;13.756;2022-07-29T04:24:56;19.75;;;13.85;;
73476;SDS011;61713;51.034;13.756;2022-07-29T04:27:22;18.58;;;14.40;;
73476;SDS011;61713;51.034;13.756;2022-07-29T04:29:47;20.33;;;14.47;;
73476;SDS011;61713;51.034;13.756;2022-07-29T04:32:13;19.80;;;13.83;;
73476;SDS011;61713;51.034;13.756;2022-07-29T04:34:38;18.90;;;13.80;;
73476;SDS011;61713;51.034;13.756;2022-07-29T04:37:04;18.93;;;14.33;;
73476;SDS011;61713;51.034;13.756;2022-07-29T04:39:29;23.25;;;15.32;;
73476;SDS011;61713;51.034;13.756;2022-07-29T04:41:55;22.33;;;16.27;;
73476;SDS011;61713;51.034;13.756;2022-07-29T04:44:20;23.17;;;17.77;;
73476;SDS011;61713;51.034;13.756;2022-07-29T04:46:46;25.40;;;16.70;;
73476;SDS011;61713;51.034;13.756;2022-07-29T04:49:12;21.73;;;19.30;;
73476;SDS011;61713;51.034;13.756;2022-07-29T04:51:38;29.65;;;22.60;;
73476;SDS011;61713;51.034;13.756;2022-07-29T04:54:03;28.25;;;25.25;;
73476;SDS011;61713;51.034;13.756;2022-07-29T04:56:29;29.42;;;25.33;;
73476;SDS011;61713;51.034;13.756;2022-07-29T04:58:54;32.75;;;27.38;;
73476;SDS011;61713;51.034;13.756;2022-07-29T05:01:20;34.97;;;26.10;;
73476;SDS011;61713;51.034;13.756;2022-07-29T05:03:45;29.63;;;24.63;;
73476;SDS011;61713;51.034;13.756;2022-07-29T05:06:11;34.67;;;28.43;;
73476;SDS011;61713;51.034;13.756;2022-07-29T05:08:36;34.53;;;29.67;;
73476;SDS011;61713;51.034;13.756;2022-07-29T05:11:02;41.17;;;28.98;;
73476;SDS011;61713;51.034;13.756;2022-07-29T05:13:28;31.27;;;27.70;;
73476;SDS011;61713;51.034;13.756;2022-07-29T05:15:54;30.77;;;26.57;;
73476;SDS011;61713;51.034;13.756;2022-07-29T05:18:19;31.30;;;25.90;;
73476;SDS011;61713;51.034;13.756;2022-07-29T05:20:45;33.97;;;27.00;;
73476;SDS011;61713;51.034;13.756;2022-07-29T05:23:10;34.60;;;28.63;;
73476;SDS011;61713;51.034;13.756;2022-07-29T05:25:37;33.33;;;28.40;;
73476;SDS011;61713;51.034;13.756;2022-07-29T05:28:03;34.92;;;29.20;;
73476;SDS011;61713;51.034;13.756;2022-07-29T05:30:29;33.60;;;29.25;;
73476;SDS011;61713;51.034;13.756;2022-07-29T05:32:54;33.37;;;29.87;;
73476;SDS011;61713;51.034;13.756;2022-07-29T05:35:20;38.30;;;32.97;;
73476;SDS011;61713;51.034;13.756;2022-07-29T05:37:45;40.67;;;33.77;;
73476;SDS011;61713;51.034;13.756;2022-07-29T05:40:11;40.07;;;33.30;;
73476;SDS011;61713;51.034;13.756;2022-07-29T05:42:36;39.20;;;32.65;;
73476;SDS011;61713;51.034;13.756;2022-07-29T05:45:02;42.07;;;36.33;;
73476;SDS011;61713;51.034;13.756;2022-07-29T05:47:28;45.95;;;40.10;;
73476;SDS011;61713;51.034;13.756;2022-07-29T05:49:54;46.63;;;41.50;;
73476;SDS011;61713;51.034;13.756;2022-07-29T05:52:19;47.88;;;39.63;;
73476;SDS011;61713;51.034;13.756;2022-07-29T05:54:45;46.67;;;41.40;;
73476;SDS011;61713;51.034;13.756;2022-07-29T05:57:18;50.27;;;44.70;;
73476;SDS011;61713;51.034;13.756;2022-07-29T05:59:44;54.17;;;45.95;;
73476;SDS011;61713;51.034;13.756;2022-07-29T06:02:10;60.97;;;49.28;;
73476;SDS011;61713;51.034;13.756;2022-07-29T06:04:36;59.80;;;49.80;;
73476;SDS011;61713;51.034;13.756;2022-07-29T06:07:01;57.17;;;48.60;;
73476;SDS011;61713;51.034;13.756;2022-07-29T06:09:27;58.88;;;47.83;;
73476;SDS011;61713;51.034;13.756;2022-07-29T06:11:52;60.88;;;48.78;;
73476;SDS011;61713;51.034;13.756;2022-07-29T06:14:18;59.25;;;47.67;;
73476;SDS011;61713;51.034;13.756;2022-07-29T06:16:44;57.80;;;47.85;;
73476;SDS011;61713;51.034;13.756;2022-07-29T06:19:10;57.53;;;49.92;;
73476;SDS011;61713;51.034;13.756;2022-07-29T06:21:36;56.07;;;48.43;;
73476;SDS011;61713;51.034;13.756;2022-07-29T06:24:01;55.85;;;47.70;;
73476;SDS011;61713;51.034;13.756;2022-07-29T06:26:27;57.83;;;48.95;;
73476;SDS011;61713;51.034;13.756;2022-07-29T06:28:52;54.70;;;46.67;;
73476;SDS011;61713;51.034;13.756;2022-07-29T06:31:18;54.57;;;47.07;;
73476;SDS011;61713;51.034;13.756;2022-07-29T06:33:43;55.30;;;47.97;;
73476;SDS011;61713;51.034;13.756;2022-07-29T06:36:09;54.63;;;47.30;;
73476;SDS011;61713;51.034;13.756;2022-07-29T06:38:34;52.60;;;43.92;;
73476;SDS011;61713;51.034;13.756;2022-07-29T06:41:00;48.17;;;42.72;;
73476;SDS011;61713;51.034;13.756;2022-07-29T06:43:37;53.33;;;43.08;;
73476;SDS011;61713;51.034;13.756;2022-07-29T06:46:06;52.88;;;42.85;;
73476;SDS011;61713;51.034;13.756;2022-07-29T06:48:33;47.97;;;41.22;;
73476;SDS011;61713;51.034;13.756;2022-07-29T06:51:00;50.38;;;40.90;;
73476;SDS011;61713;51.034;13.756;2022-07-29T06:53:27;50.78;;;42.40;;
73476;SDS011;61713;51.034;13.756;2022-07-29T06:55:53;54.53;;;45.40;;
73476;SDS011;61713;51.034;13.756;2022-07-29T06:58:18;53.83;;;45.47;;
73476;SDS011;61713;51.034;13.756;2022-07-29T07:00:45;50.70;;;44.55;;
73476;SDS011;61713;51.034;13.756;2022-07-29T07:03:12;52.85;;;43.92;;
73476;SDS011;61713;51.034;13.756;2022-07-29T07:05:38;50.73;;;40.73;;
73476;SDS011;61713;51.034;13.756;2022-07-29T07:08:04;45.83;;;37.77;;
73476;SDS011;61713;51.034;13.756;2022-07-29T07:10:30;54.60;;;43.78;;
73476;SDS011;61713;51.034;13.756;2022-07-29T07:12:55;48.70;;;39.58;;
73476;SDS011;61713;51.034;13.756;2022-07-29T07:15:21;49.23;;;40.27;;
73476;SDS011;61713;51.034;13.756;2022-07-29T07:17:50;48.20;;;37.77;;
73476;SDS011;61713;51.034;13.756;2022-07-29T07:20:16;42.97;;;35.03;;
73476;SDS011;61713;51.034;13.756;2022-07-29T07:22:42;39.25;;;31.63;;
73476;SDS011;61713;51.034;13.756;2022-07-29T07:25:08;38.88;;;32.60;;
73476;SDS011;61713;51.034;13.756;2022-07-29T07:27:35;42.10;;;31.80;;
73476;SDS011;61713;51.034;13.756;2022-07-29T07:30:01;38.90;;;29.27;;
73476;SDS011;61713;51.034;13.756;2022-07-29T07:32:31;37.92;;;27.98;;
73476;SDS011;61713;51.034;13.756;2022-07-29T07:34:57;35.33;;;30.25;;
73476;SDS011;61713;51.034;13.756;2022-07-29T07:37:23;34.13;;;25.75;;
73476;SDS011;61713;51.034;13.756;2022-07-29T07:39:49;30.77;;;25.67;;
73476;SDS011;61713;51.034;13.756;2022-07-29T07:42:16;32.83;;;21.70;;
73476;SDS011;61713;51.034;13.756;2022-07-29T07:44:42;29.33;;;21.50;;
73476;SDS011;61713;51.034;13.756;2022-07-29T07:47:07;25.67;;;21.23;;
73476;SDS011;61713;51.034;13.756;2022-07-29T07:49:33;29.60;;;21.77;;
73476;SDS011;61713;51.034;13.756;2022-07-29T07:51:58;30.87;;;22.10;;
73476;SDS011;61713;51.034;13.756;2022-07-29T07:54:24;30.90;;;24.40;;
73476;SDS011;61713;51.034;13.756;2022-07-29T07:56:49;32.53;;;25.70;;
73476;SDS011;61713;51.034;13.756;2022-07-29T07:59:15;30.33;;;24.73;;
73476;SDS011;61713;51.034;13.756;2022-07-29T08:01:41;29.42;;;24.95;;
73476;SDS011;61713;51.034;13.756;2022-07-29T08:04:07;35.78;;;26.90;;
73476;SDS011;61713;51.034;13.756;2022-07-29T08:06:33;34.42;;;25.65;;
73476;SDS011;61713;51.034;13.756;2022-07-29T08:09:02;31.95;;;25.05;;
73476;SDS011;61713;51.034;13.756;2022-07-29T08:11:29;28.45;;;24.63;;
73476;SDS011;61713;51.034;13.756;2022-07-29T08:13:55;28.92;;;24.38;;
73476;SDS011;61713;51.034;13.756;2022-07-29T08:16:21;24.83;;;21.95;;
73476;SDS011;61713;51.034;13.756;2022-07-29T08:18:47;29.13;;;22.57;;
73476;SDS011;61713;51.034;13.756;2022-07-29T08:21:13;27.38;;;21.30;;
73476;SDS011;61713;51.034;13.756;2022-07-29T08:23:40;30.58;;;22.10;;
73476;SDS011;61713;51.034;13.756;2022-07-29T08:26:11;25.33;;;20.58;;
73476;SDS011;61713;51.034;13.756;2022-07-29T08:28:38;26.17;;;20.80;;
73476;SDS011;61713;51.034;13.756;2022-07-29T08:31:04;24.90;;;20.70;;
73476;SDS011;61713;51.034;13.756;2022-07-29T08:33:30;21.35;;;18.60;;
73476;SDS011;61713;51.034;13.756;2022-07-29T08:35:56;22.23;;;17.67;;
73476;SDS011;61713;51.034;13.756;2022-07-29T08:38:22;21.53;;;16.70;;
73476;SDS011;61713;51.034;13.756;2022-07-29T08:40:47;23.65;;;19.77;;
73476;SDS011;61713;51.034;13.756;2022-07-29T08:43:13;21.33;;;17.42;;
73476;SDS011;61713;51.034;13.756;2022-07-29T08:45:42;21.90;;;17.97;;
73476;SDS011;61713;51.034;13.756;2022-07-29T08:48:11;24.30;;;17.35;;
73476;SDS011;61713;51.034;13.756;2022-07-29T08:50:41;21.98;;;16.73;;
73476;SDS011;61713;51.034;13.756;2022-07-29T08:53:08;23.83;;;16.48;;
73476;SDS011;61713;51.034;13.756;2022-07-29T08:55:38;17.70;;;15.00;;
73476;SDS011;61713;51.034;13.756;2022-07-29T08:58:07;19.85;;;14.85;;
73476;SDS011;61713;51.034;13.756;2022-07-29T09:00:33;27.10;;;17.40;;
73476;SDS011;61713;51.034;13.756;2022-07-29T09:03:01;18.52;;;14.95;;
73476;SDS011;61713;51.034;13.756;2022-07-29T09:05:28;19.70;;;15.40;;
73476;SDS011;61713;51.034;13.756;2022-07-29T09:07:54;20.70;;;15.30;;
73476;SDS011;61713;51.034;13.756;2022-07-29T09:10:20;22.23;;;15.07;;
73476;SDS011;61713;51.034;13.756;2022-07-29T09:12:46;23.77;;;17.23;;
73476;SDS011;61713;51.034;13.756;2022-07-29T09:15:12;20.20;;;16.27;;
73476;SDS011;61713;51.034;13.756;2022-07-29T09:17:41;24.88;;;17.15;;
73476;SDS011;61713;51.034;13.756;2022-07-29T09:20:08;22.27;;;18.33;;
73476;SDS011;61713;51.034;13.756;2022-07-29T09:22:35;19.07;;;14.50;;
73476;SDS011;61713;51.034;13.756;2022-07-29T09:25:01;22.30;;;14.67;;
73476;SDS011;61713;51.034;13.756;2022-07-29T09:27:26;19.47;;;15.30;;
73476;SDS011;61713;51.034;13.756;2022-07-29T09:32:32;23.13;;;17.85;;
73476;SDS011;61713;51.034;13.756;2022-07-29T09:38:09;20.27;;;16.27;;
73476;SDS011;61713;51.034;13.756;2022-07-29T09:40:35;20.00;;;17.83;;
73476;SDS011;61713;51.034;13.756;2022-07-29T09:43:08;20.80;;;17.13;;
73476;SDS011;61713;51.034;13.756;2022-07-29T09:45:35;19.75;;;16.85;;
73476;SDS011;61713;51.034;13.756;2022-07-29T09:48:14;22.13;;;17.57;;
73476;SDS011;61713;51.034;13.756;2022-07-29T09:50:42;22.40;;;17.87;;
73476;SDS011;61713;51.034;13.756;2022-07-29T09:53:09;22.02;;;18.67;;
73476;SDS011;61713;51.034;13.756;2022-07-29T09:55:51;27.63;;;20.40;;
73476;SDS011;61713;51.034;13.756;2022-07-29T09:58:17;26.48;;;21.05;;
73476;SDS011;61713;51.034;13.756;2022-07-29T10:00:44;23.90;;;19.98;;
73476;SDS011;61713;51.034;13.756;2022-07-29T10:03:11;20.42;;;18.20;;
73476;SDS011;61713;51.034;13.756;2022-07-29T10:05:37;21.20;;;18.85;;
73476;SDS011;61713;51.034;13.756;2022-07-29T10:08:03;24.90;;;19.23;;
73476;SDS011;61713;51.034;13.756;2022-07-29T10:10:30;23.30;;;19.40;;
73476;SDS011;61713;51.034;13.756;2022-07-29T10:13:02;23.60;;;19.77;;
73476;SDS011;61713;51.034;13.756;2022-07-29T10:15:33;24.63;;;16.97;;
73476;SDS011;61713;51.034;13.756;2022-07-29T10:18:06;19.40;;;16.65;;
73476;SDS011;61713;51.034;13.756;2022-07-29T10:20:32;15.98;;;13.68;;
73476;SDS011;61713;51.034;13.756;2022-07-29T10:22:58;16.58;;;12.40;;
73476;SDS011;61713;51.034;13.756;2022-07-29T10:25:24;18.60;;;13.87;;
73476;SDS011;61713;51.034;13.756;2022-07-29T10:27:51;14.90;;;12.13;;
73476;SDS011;61713;51.034;13.756;2022-07-29T10:30:17;17.77;;;14.35;;
73476;SDS011;61713;51.034;13.756;2022-07-29T10:32:54;16.03;;;13.33;;
73476;SDS011;61713;51.034;13.756;2022-07-29T10:35:45;17.53;;;13.80;;
73476;SDS011;61713;51.034;13.756;2022-07-29T10:41:00;9.60;;;5.43;;
73476;SDS011;61713;51.034;13.756;2022-07-29T10:43:58;8.48;;;5.30;;
73476;SDS011;61713;51.034;13.756;2022-07-29T10:46:27;9.32;;;6.10;;
73476;SDS011;61713;51.034;13.756;2022-07-29T10:51:52;6.38;;;4.60;;
73476;SDS011;61713;51.034;13.756;2022-07-29T10:57:12;7.13;;;4.20;;
73476;SDS011;61713;51.034;13.756;2022-07-29T10:59:40;5.15;;;3.80;;
73476;SDS011;61713;51.034;13.756;2022-07-29T11:07:38;7.35;;;3.42;;
73476;SDS011;61713;51.034;13.756;2022-07-29T11:15:12;4.72;;;3.33;;
73476;SDS011;61713;51.034;13.756;2022-07-29T11:23:26;4.45;;;3.70;;
73476;SDS011;61713;51.034;13.756;2022-07-29T11:34:18;7.33;;;3.87;;
73476;SDS011;61713;51.034;13.756;2022-07-29T11:40:07;5.33;;;4.10;;
73476;SDS011;61713;51.034;13.756;2022-07-29T11:45:01;8.33;;;3.60;;
73476;SDS011;61713;51.034;13.756;2022-07-29T11:47:32;6.32;;;3.50;;
73476;SDS011;61713;51.034;13.756;2022-07-29T11:50:11;6.07;;;3.85;;
73476;SDS011;61713;51.034;13.756;2022-07-29T11:52:39;7.33;;;3.60;;
73476;SDS011;61713;51.034;13.756;2022-07-29T11:55:10;6.43;;;3.50;;
73476;SDS011;61713;51.034;13.756;2022-07-29T11:57:37;6.57;;;3.80;;
73476;SDS011;61713;51.034;13.756;2022-07-29T12:03:04;5.30;;;3.45;;
73476;SDS011;61713;51.034;13.756;2022-07-29T12:05:32;6.30;;;3.78;;
73476;SDS011;61713;51.034;13.756;2022-07-29T12:08:07;6.82;;;4.35;;
73476;SDS011;61713;51.034;13.756;2022-07-29T12:10:34;4.70;;;3.80;;
73476;SDS011;61713;51.034;13.756;2022-07-29T12:13:00;6.50;;;3.72;;
73476;SDS011;61713;51.034;13.756;2022-07-29T12:15:25;9.60;;;4.10;;
73476;SDS011;61713;51.034;13.756;2022-07-29T12:17:51;6.50;;;4.37;;
73476;SDS011;61713;51.034;13.756;2022-07-29T12:20:24;4.97;;;4.05;;
73476;SDS011;61713;51.034;13.756;2022-07-29T12:22:54;7.53;;;4.18;;
73476;SDS011;61713;51.034;13.756;2022-07-29T12:25:20;6.10;;;4.10;;
73476;SDS011;61713;51.034;13.756;2022-07-29T12:27:49;6.25;;;4.40;;
73476;SDS011;61713;51.034;13.756;2022-07-29T12:30:22;10.98;;;4.38;;
73476;SDS011;61713;51.034;13.756;2022-07-29T12:32:58;5.72;;;4.15;;
73476;SDS011;61713;51.034;13.756;2022-07-29T12:35:24;5.87;;;4.33;;
73476;SDS011;61713;51.034;13.756;2022-07-29T12:37:50;6.63;;;4.13;;
73476;SDS011;61713;51.034;13.756;2022-07-29T12:40:17;5.78;;;3.97;;
73476;SDS011;61713;51.034;13.756;2022-07-29T12:43:04;5.00;;;3.60;;
73476;SDS011;61713;51.034;13.756;2022-07-29T12:45:37;6.80;;;3.90;;
73476;SDS011;61713;51.034;13.756;2022-07-29T12:48:04;8.57;;;3.90;;
73476;SDS011;61713;51.034;13.756;2022-07-29T12:50:33;7.82;;;4.00;;
73476;SDS011;61713;51.034;13.756;2022-07-29T12:53:09;7.32;;;4.40;;
73476;SDS011;61713;51.034;13.756;2022-07-29T12:55:42;5.18;;;4.10;;
73476;SDS011;61713;51.034;13.756;2022-07-29T12:58:13;4.95;;;4.43;;
73476;SDS011;61713;51.034;13.756;2022-07-29T13:00:58;6.75;;;4.38;;
73476;SDS011;61713;51.034;13.756;2022-07-29T13:03:27;8.00;;;4.32;;
73476;SDS011;61713;51.034;13.756;2022-07-29T13:05:54;6.72;;;4.22;;
73476;SDS011;61713;51.034;13.756;2022-07-29T13:08:19;7.03;;;4.30;;
73476;SDS011;61713;51.034;13.756;2022-07-29T13:10:45;5.97;;;4.50;;
73476;SDS011;61713;51.034;13.756;2022-07-29T13:13:11;5.73;;;4.10;;
73476;SDS011;61713;51.034;13.756;2022-07-29T13:15:39;5.43;;;3.80;;
73476;SDS011;61713;51.034;13.756;2022-07-29T13:18:26;6.10;;;3.72;;
73476;SDS011;61713;51.034;13.756;2022-07-29T13:20:57;7.07;;;5.70;;
73476;SDS011;61713;51.034;13.756;2022-07-29T13:23:35;6.43;;;5.77;;
73476;SDS011;61713;51.034;13.756;2022-07-29T13:26:05;6.40;;;5.47;;
73476;SDS011;61713;51.034;13.756;2022-07-29T13:28:31;9.27;;;5.37;;
73476;SDS011;61713;51.034;13.756;2022-07-29T13:30:57;7.67;;;5.03;;
73476;SDS011;61713;51.034;13.756;2022-07-29T13:33:23;7.35;;;4.68;;
73476;SDS011;61713;51.034;13.756;2022-07-29T13:35:48;6.32;;;4.47;;
73476;SDS011;61713;51.034;13.756;2022-07-29T13:38:14;5.63;;;4.70;;
73476;SDS011;61713;51.034;13.756;2022-07-29T13:40:40;6.43;;;4.63;;
73476;SDS011;61713;51.034;13.756;2022-07-29T13:43:08;7.10;;;4.70;;
73476;SDS011;61713;51.034;13.756;2022-07-29T13:45:34;7.72;;;4.43;;
73476;SDS011;61713;51.034;13.756;2022-07-29T13:48:00;6.40;;;4.50;;
73476;SDS011;61713;51.034;13.756;2022-07-29T13:50:26;5.07;;;3.80;;
73476;SDS011;61713;51.034;13.756;2022-07-29T13:52:52;5.47;;;4.28;;
73476;SDS011;61713;51.034;13.756;2022-07-29T13:55:17;6.53;;;4.20;;
73476;SDS011;61713;51.034;13.756;2022-07-29T13:57:43;6.27;;;4.80;;
73476;SDS011;61713;51.034;13.756;2022-07-29T14:00:09;6.25;;;4.47;;
73476;SDS011;61713;51.034;13.756;2022-07-29T14:02:35;7.15;;;4.35;;
73476;SDS011;61713;51.034;13.756;2022-07-29T14:05:02;7.32;;;4.47;;
73476;SDS011;61713;51.034;13.756;2022-07-29T14:07:28;6.00;;;4.40;;
73476;SDS011;61713;51.034;13.756;2022-07-29T14:09:53;6.03;;;4.03;;
73476;SDS011;61713;51.034;13.756;2022-07-29T14:12:19;6.17;;;4.10;;
73476;SDS011;61713;51.034;13.756;2022-07-29T14:14:44;5.03;;;4.05;;
73476;SDS011;61713;51.034;13.756;2022-07-29T14:17:10;5.33;;;3.70;;
73476;SDS011;61713;51.034;13.756;2022-07-29T14:19:35;5.63;;;3.60;;
73476;SDS011;61713;51.034;13.756;2022-07-29T14:22:03;6.13;;;3.70;;
73476;SDS011;61713;51.034;13.756;2022-07-29T14:24:29;4.38;;;3.80;;
73476;SDS011;61713;51.034;13.756;2022-07-29T14:26:55;5.20;;;3.85;;
73476;SDS011;61713;51.034;13.756;2022-07-29T14:29:21;5.40;;;3.73;;
73476;SDS011;61713;51.034;13.756;2022-07-29T14:31:47;6.63;;;4.10;;
73476;SDS011;61713;51.034;13.756;2022-07-29T14:34:12;7.57;;;4.80;;
73476;SDS011;61713;51.034;13.756;2022-07-29T14:36:40;4.70;;;3.85;;
73476;SDS011;61713;51.034;13.756;2022-07-29T14:39:05;6.53;;;3.72;;
73476;SDS011;61713;51.034;13.756;2022-07-29T14:41:31;5.43;;;3.87;;
73476;SDS011;61713;51.034;13.756;2022-07-29T14:43:57;6.32;;;3.80;;
73476;SDS011;61713;51.034;13.756;2022-07-29T14:46:25;5.32;;;4.43;;
73476;SDS011;61713;51.034;13.756;2022-07-29T14:48:51;5.55;;;4.13;;
73476;SDS011;61713;51.034;13.756;2022-07-29T14:51:16;6.13;;;3.97;;
73476;SDS011;61713;51.034;13.756;2022-07-29T14:53:42;5.57;;;4.33;;
73476;SDS011;61713;51.034;13.756;2022-07-29T14:56:08;6.07;;;4.73;;
73476;SDS011;61713;51.034;13.756;2022-07-29T14:58:34;4.57;;;4.10;;
73476;SDS011;61713;51.034;13.756;2022-07-29T15:00:59;4.70;;;4.20;;
73476;SDS011;61713;51.034;13.756;2022-07-29T15:03:25;5.03;;;4.30;;
73476;SDS011;61713;51.034;13.756;2022-07-29T15:05:52;5.75;;;4.38;;
73476;SDS011;61713;51.034;13.756;2022-07-29T15:08:18;5.73;;;4.30;;
73476;SDS011;61713;51.034;13.756;2022-07-29T15:10:43;5.07;;;4.43;;
73476;SDS011;61713;51.034;13.756;2022-07-29T15:13:09;7.05;;;4.05;;
73476;SDS011;61713;51.034;13.756;2022-07-29T15:15:34;5.63;;;4.23;;
73476;SDS011;61713;51.034;13.756;2022-07-29T15:18:00;5.90;;;3.90;;
73476;SDS011;61713;51.034;13.756;2022-07-29T15:20:25;4.65;;;4.03;;